Meteo Giornale » Osservazioni meteo Italia » Bologna-Borgo Panigale

ore: 01:50 - Osservazioni Meteo Bologna-Borgo Panigale
Lat. 44° 32' N Lon. 11° 18' E Alt. 36 metri s.l.m.

sereno Europe/Rome

13 °C

Sereno

Temp. 24 Ore

11 °C

26 °C

Sud/Sud-Ovest

13 Km/h

Dew point 8 °C

Umidità 71 %

Visibilità  10 Km

Il sole sorge alle ore 07:31

Il sole tramonta alle ore 18:28

Data e Ora Cielo e Fenomeni T °C DP °C Um. % Pres. hPa Vis. km Vento km/h
Oggi h: 01:50 sereno Sereno 13 8 71 1026 10 S/SO 13
Oggi h: 01:20 sereno Sereno 13 9 76 1026 10 S/SO 14.8
Oggi h: 00:50 sereno Sereno 14 9 71 1026 10 S/SO 16.7
Oggi h: 00:20 sereno Sereno 14 9 71 1026 10 SO 14.8
Ieri h: 23:50 sereno Sereno 15 10 72 1026 10 S/SO 14.8
Ieri h: 23:20 sereno Sereno 15 10 72 1026 10 S/SO 16.7
Ieri h: 22:50 sereno Sereno 15 10 72 1026 10 S/SO 7.4
Ieri h: 22:20 sereno Sereno 15 11 76 1026 10 N 3.7
Ieri h: 21:50 sereno Sereno 14 12 87 1026 10 N 0
Ieri h: 21:20 sereno Sereno 15 11 76 1026 10 N 3.7
Ieri h: 20:50 sereno Sereno 15 11 76 1026 10 N 5.5
Ieri h: 20:20 sereno Sereno 16 11 72 1026 10 N 1.8
Ieri h: 19:50 sereno Sereno 15 11 76 1026 10 N 5.5
Ieri h: 19:20 sereno Sereno 16 11 72 1026 10 N 5.5
Ieri h: 18:50 sereno Sereno 18 11 63 1026 10 N 5.5
Ieri h: 18:20 sereno Sereno 21 11 52 1025 10 N 5.5
Ieri h: 17:50 sereno Sereno 23 11 46 1025 10 N 5.5
Ieri h: 17:20 sereno Sereno 25 11 41 1026 10 N 0
Ieri h: 16:50 sereno Sereno 26 11 39 1026 10 N 0
Ieri h: 16:20 sereno Sereno 25 10 38 1026 10 N 5.5
Ieri h: 15:50 sereno Sereno 24 11 43 1026 10 N 7.4
Ieri h: 15:20 sereno Sereno 25 11 41 1026 8 N 3.7
Ieri h: 14:50 sereno Sereno 24 12 47 1027 8 N 5.5
Ieri h: 14:20 sereno Sereno 24 12 47 1027 10 N 5.5
Ieri h: 13:50 sereno Sereno 23 12 49 1027 10 N/NO 7.4
Ieri h: 13:20 sereno Sereno 23 12 49 1027 10 N 5.5
Ieri h: 12:50 sereno Sereno 22 12 53 1028 10 NO 7.4
Ieri h: 12:20 sereno Sereno 21 11 52 1028 10 O/NO 9.3
Ieri h: 11:50 sereno Sereno 21 10 49 1028 10 O/NO 7.4
Ieri h: 11:20 sereno Sereno 20 11 56 1028 10 NO 9.3
Ieri h: 10:50 sereno Sereno 19 11 59 1028 10 O/NO 9.3
Ieri h: 10:20 sereno Sereno 18 9 55 1028 10 N 5.5
Ieri h: 09:50 sereno Sereno 17 9 59 1028 10 N 5.5
Ieri h: 09:20 sereno Sereno 15 8 62 1028 10 SO 7.4
Ieri h: 08:50 sereno Sereno 13 7 66 1027 10 S/SO 9.3
Ieri h: 08:20 sereno Sereno 12 7 71 1027 10 SO 11.1
Ieri h: 07:50 sereno Sereno 11 6 71 1027 10 SO 9.3
Ieri h: 07:20 sereno Sereno 11 6 71 1027 10 S/SO 13
Ieri h: 06:50 sereno Sereno 11 6 71 1027 10 S/SO 14.8
Ieri h: 06:20 sereno Sereno 12 6 66 1027 10 S/SO 11.1
Ieri h: 05:50 sereno Sereno 12 6 66 1027 10 S/SO 14.8
Ieri h: 05:20 sereno Sereno 12 7 71 1027 10 S/SO 13
Ieri h: 04:50 sereno Sereno 12 7 71 1027 10 SO 13
Ieri h: 04:20 sereno Sereno 12 7 71 1027 10 SO 14.8
Ieri h: 03:50 sereno Sereno 13 7 66 1027 10 SO 11.1
Ieri h: 03:20 sereno Sereno 13 8 71 1027 10 S/SO 14.8
Ieri h: 02:50 sereno Sereno 13 8 71 1027 10 S/SO 14.8